createdAt,value
2018-07-22T00:02:24.239Z,95872.70
2018-07-22T00:04:54.353Z,95874.88
2018-07-22T00:07:24.439Z,95873.41
2018-07-22T00:09:54.280Z,95876.34
2018-07-22T00:12:24.137Z,95870.05
2018-07-22T00:14:56.077Z,95869.87
2018-07-22T00:17:27.181Z,95868.13
2018-07-22T00:19:56.976Z,95867.28
2018-07-22T00:22:30.663Z,95866.05
2018-07-22T00:25:00.469Z,95861.53
2018-07-22T00:27:30.619Z,95865.88
2018-07-22T00:30:00.411Z,95863.16
2018-07-22T00:32:30.258Z,95860.50
2018-07-22T00:35:00.684Z,95849.64
2018-07-22T00:37:30.877Z,95852.08
2018-07-22T00:40:00.721Z,95855.23
2018-07-22T00:42:30.553Z,95855.27
2018-07-22T00:45:00.389Z,95856.25
2018-07-22T00:47:30.203Z,95851.05
2018-07-22T00:50:00.062Z,95858.17
2018-07-22T00:52:29.955Z,95865.54
2018-07-22T00:54:59.729Z,95862.28
2018-07-22T00:57:29.539Z,95859.25
2018-07-22T00:59:59.743Z,95857.27
2018-07-22T01:02:29.735Z,95855.00
2018-07-22T01:04:59.513Z,95853.13
2018-07-22T01:07:29.333Z,95852.79
2018-07-22T01:09:59.213Z,95846.73
2018-07-22T01:12:29.345Z,95854.20
2018-07-22T01:14:59.201Z,95851.05
2018-07-22T01:17:29.171Z,95850.23
2018-07-22T01:19:59.221Z,95850.13
2018-07-22T01:22:29.131Z,95852.89
2018-07-22T01:24:58.943Z,95844.22
2018-07-22T01:27:28.975Z,95847.20
2018-07-22T01:29:59.029Z,95851.94
2018-07-22T01:32:28.855Z,95857.50
2018-07-22T01:34:58.611Z,95853.46
2018-07-22T01:37:28.396Z,95853.69
2018-07-22T01:39:58.333Z,95854.14
2018-07-22T01:42:28.235Z,95853.00
2018-07-22T01:44:58.025Z,95849.47
2018-07-22T01:47:27.840Z,95856.78
2018-07-22T01:49:57.639Z,95853.78
2018-07-22T01:52:27.441Z,95847.98
2018-07-22T01:54:57.179Z,95850.49
2018-07-22T01:57:26.941Z,95846.03
2018-07-22T01:59:56.718Z,95847.13
2018-07-22T02:02:26.569Z,95847.20
2018-07-22T02:04:56.416Z,95850.11
2018-07-22T02:07:26.166Z,95848.62
2018-07-22T02:09:55.928Z,95849.85
2018-07-22T02:12:25.757Z,95855.44
2018-07-22T02:14:55.605Z,95857.92
2018-07-22T02:17:25.412Z,95857.25
2018-07-22T02:19:55.549Z,95863.17
2018-07-22T02:22:25.399Z,95856.28
2018-07-22T02:24:55.243Z,95861.02
2018-07-22T02:27:25.129Z,95865.08
2018-07-22T02:29:54.963Z,95863.27
2018-07-22T02:32:24.833Z,95864.66
2018-07-22T02:34:54.659Z,95862.00
2018-07-22T02:37:24.884Z,95862.45
2018-07-22T02:39:54.702Z,95860.02
2018-07-22T02:42:25.321Z,95857.86
2018-07-22T02:44:55.086Z,95857.09
2018-07-22T02:47:24.914Z,95860.16
2018-07-22T02:49:54.698Z,95858.36
2018-07-22T02:52:24.894Z,95855.61
2018-07-22T02:54:54.678Z,95854.15
2018-07-22T02:57:24.524Z,95856.91
2018-07-22T02:59:54.571Z,95863.92
2018-07-22T03:02:24.479Z,95862.87
2018-07-22T03:04:54.324Z,95866.83
2018-07-22T03:07:24.302Z,95864.43
2018-07-22T03:09:54.081Z,95862.37
2018-07-22T03:12:23.505Z,95864.85
2018-07-22T03:14:53.308Z,95860.16
2018-07-22T03:17:23.140Z,95862.45
2018-07-22T03:19:52.918Z,95862.55
2018-07-22T03:22:22.803Z,95864.98
2018-07-22T03:24:52.607Z,95865.94
2018-07-22T03:27:22.462Z,95867.41
2018-07-22T03:29:52.260Z,95864.12
2018-07-22T03:32:22.103Z,95868.25
2018-07-22T03:34:51.945Z,95865.16
2018-07-22T03:37:21.946Z,95872.38
2018-07-22T03:39:51.762Z,95869.90
2018-07-22T03:42:21.574Z,95874.20
2018-07-22T03:44:51.400Z,95871.09
2018-07-22T03:47:21.236Z,95865.54
2018-07-22T03:49:52.068Z,95873.38
2018-07-22T03:52:21.897Z,95873.53
2018-07-22T03:54:52.061Z,95878.02
2018-07-22T03:57:22.199Z,95872.01
2018-07-22T03:59:52.292Z,95877.88
2018-07-22T04:02:22.134Z,95875.05
2018-07-22T04:04:51.917Z,95875.91
2018-07-22T04:07:21.695Z,95880.14
2018-07-22T04:09:51.492Z,95881.97
2018-07-22T04:12:21.289Z,95875.11
2018-07-22T04:14:51.071Z,95880.17
2018-07-22T04:17:20.908Z,95876.05
2018-07-22T04:19:50.732Z,95881.82
2018-07-22T04:22:20.667Z,95878.73
2018-07-22T04:24:50.507Z,95878.67
2018-07-22T04:27:20.305Z,95877.42
2018-07-22T04:29:50.760Z,95879.17
2018-07-22T04:32:20.220Z,95881.23
2018-07-22T04:34:50.149Z,95880.38
2018-07-22T04:37:19.987Z,95880.14
2018-07-22T04:39:50.246Z,95877.21
2018-07-22T04:42:20.047Z,95880.29
2018-07-22T04:44:49.946Z,95883.86
2018-07-22T04:47:19.756Z,95887.04
2018-07-22T04:49:49.678Z,95891.47
2018-07-22T04:52:19.540Z,95890.88
2018-07-22T04:54:49.885Z,95888.56
2018-07-22T04:57:20.254Z,95891.30
2018-07-22T04:59:50.646Z,95896.83
2018-07-22T05:02:21.279Z,95898.96
2018-07-22T05:04:51.729Z,95908.45
2018-07-22T05:07:22.128Z,95910.74
2018-07-22T05:09:52.536Z,95907.31
2018-07-22T05:12:22.860Z,95906.61
2018-07-22T05:14:53.270Z,95908.39
2018-07-22T05:17:23.662Z,95911.33
2018-07-22T05:19:54.167Z,95914.05
2018-07-22T05:22:24.843Z,95916.09
2018-07-22T05:24:55.197Z,95916.93
2018-07-22T05:27:25.533Z,95916.94
2018-07-22T05:29:55.870Z,95919.64
2018-07-22T05:32:26.318Z,95919.05
2018-07-22T05:34:56.661Z,95929.47
2018-07-22T05:37:26.978Z,95921.03
2018-07-22T05:39:57.287Z,95922.66
2018-07-22T05:42:27.636Z,95924.02
2018-07-22T05:44:57.936Z,95932.49
2018-07-22T05:47:28.281Z,95929.85
2018-07-22T05:49:58.625Z,95927.45
2018-07-22T05:52:29.003Z,95935.03
2018-07-22T05:54:59.292Z,95924.78
2018-07-22T05:57:29.586Z,95929.98
2018-07-22T05:59:59.859Z,95937.64
2018-07-22T06:02:30.299Z,95927.81
2018-07-22T06:05:00.682Z,95931.45
2018-07-22T06:07:31.053Z,95929.20
2018-07-22T06:10:01.434Z,95929.90
2018-07-22T06:12:31.838Z,95928.81
2018-07-22T06:15:02.206Z,95928.70
2018-07-22T06:17:32.659Z,95927.82
2018-07-22T06:20:03.011Z,95923.13
2018-07-22T06:22:33.395Z,95926.20
2018-07-22T06:25:04.279Z,95928.68
2018-07-22T06:27:34.679Z,95929.44
2018-07-22T06:30:05.740Z,95927.29
2018-07-22T06:32:36.249Z,95928.83
2018-07-22T06:35:06.846Z,95927.12
2018-07-22T06:37:37.203Z,95926.84
2018-07-22T06:40:09.345Z,95927.73
2018-07-22T06:42:39.773Z,95931.90
2018-07-22T06:45:10.123Z,95925.13
2018-07-22T06:47:40.523Z,95924.20
2018-07-22T06:50:10.933Z,95933.13
2018-07-22T06:52:41.310Z,95928.66
2018-07-22T06:55:11.695Z,95924.52
2018-07-22T06:57:42.339Z,95923.26
2018-07-22T07:00:13.015Z,95929.09
2018-07-22T07:02:43.342Z,95930.48
2018-07-22T07:05:14.122Z,95941.27
2018-07-22T07:07:44.695Z,95936.66
2018-07-22T07:10:15.327Z,95946.12
2018-07-22T07:12:45.989Z,95944.77
2018-07-22T07:15:16.384Z,95939.30
2018-07-22T07:17:46.793Z,95938.59
2018-07-22T07:20:17.416Z,95941.11
2018-07-22T07:22:47.772Z,95941.91
2018-07-22T07:25:18.183Z,95937.58
2018-07-22T07:27:48.591Z,95932.94
2018-07-22T07:30:18.982Z,95939.50
2018-07-22T07:32:49.399Z,95936.75
2018-07-22T07:35:19.718Z,95936.75
2018-07-22T07:37:50.109Z,95936.41
2018-07-22T07:40:20.977Z,95939.11
2018-07-22T07:42:51.308Z,95935.80
2018-07-22T07:45:21.983Z,95939.37
2018-07-22T07:47:52.686Z,95944.50
2018-07-22T07:50:24.197Z,95940.50
2018-07-22T07:52:54.561Z,95939.10
2018-07-22T07:55:25.878Z,95944.73
2018-07-22T07:57:56.310Z,95940.45
2018-07-22T08:00:26.676Z,95942.87
2018-07-22T08:02:57.041Z,95941.55
2018-07-22T08:05:27.798Z,95949.12
2018-07-22T08:07:58.959Z,95947.99
2018-07-22T08:10:29.367Z,95945.09
2018-07-22T08:12:59.671Z,95941.79
2018-07-22T08:15:30.070Z,95942.14
2018-07-22T08:18:00.392Z,95947.67
2018-07-22T08:20:30.844Z,95951.19
2018-07-22T08:23:01.484Z,95943.95
2018-07-22T08:25:32.748Z,95943.02
2018-07-22T08:28:03.238Z,95944.15
2018-07-22T08:30:34.023Z,95942.02
2018-07-22T08:33:04.646Z,95952.72
2018-07-22T08:35:35.004Z,95947.81
2018-07-22T08:38:05.471Z,95947.08
2018-07-22T08:40:35.888Z,95948.47
2018-07-22T08:43:06.278Z,95955.31
2018-07-22T08:45:36.616Z,95949.25
2018-07-22T08:48:08.418Z,95948.77
2018-07-22T08:50:38.749Z,95951.55
2018-07-22T08:53:09.100Z,95944.62
2018-07-22T08:55:39.658Z,95953.65
2018-07-22T08:58:10.049Z,95952.56
2018-07-22T09:00:40.328Z,95951.95
2018-07-22T09:03:10.963Z,95959.36
2018-07-22T09:05:41.844Z,95951.75
2018-07-22T09:08:12.159Z,95952.25
2018-07-22T09:10:42.638Z,95950.72
2018-07-22T09:13:12.922Z,95953.70
2018-07-22T09:15:43.198Z,95955.84
2018-07-22T09:18:13.546Z,95958.50
2018-07-22T09:20:43.826Z,95961.13
2018-07-22T09:23:14.157Z,95957.23
2018-07-22T09:25:44.443Z,95956.28
2018-07-22T09:28:14.759Z,95961.36
2018-07-22T09:30:45.035Z,95959.97
2018-07-22T09:33:15.451Z,95958.59
2018-07-22T09:35:46.517Z,95960.36
2018-07-22T09:38:17.050Z,95963.42
2018-07-22T09:40:47.414Z,95967.72
2018-07-22T09:43:17.765Z,95959.52
2018-07-22T09:45:49.052Z,95961.94
2018-07-22T09:48:19.408Z,95962.12
2018-07-22T09:50:50.366Z,95968.48
2018-07-22T09:53:20.783Z,95961.81
2018-07-22T09:55:51.371Z,95964.44
2018-07-22T09:58:21.772Z,95959.17
2018-07-22T10:00:58.940Z,95962.63
2018-07-22T10:03:30.310Z,95966.30
2018-07-22T10:06:01.315Z,95959.94
2018-07-22T10:08:32.232Z,95956.69
2018-07-22T10:11:02.684Z,95962.95
2018-07-22T10:13:33.168Z,95969.33
2018-07-22T10:16:03.533Z,95958.09
2018-07-22T10:18:33.906Z,95965.80
2018-07-22T10:21:04.430Z,95955.25
2018-07-22T10:23:34.870Z,95963.09
2018-07-22T10:26:05.233Z,95962.37
2018-07-22T10:28:35.660Z,95956.95
2018-07-22T10:31:06.218Z,95958.59
2018-07-22T10:33:36.584Z,95957.70
2018-07-22T10:36:07.578Z,95959.97
2018-07-22T10:38:37.971Z,95959.77
2018-07-22T10:41:08.342Z,95955.56
2018-07-22T10:43:38.684Z,95955.35
2018-07-22T10:46:09.094Z,95956.13
2018-07-22T10:48:39.489Z,95957.38
2018-07-22T10:51:09.864Z,95957.75
2018-07-22T10:53:40.364Z,95963.88
2018-07-22T10:56:10.791Z,95957.69
2018-07-22T10:58:41.224Z,95962.39
2018-07-22T11:01:11.540Z,95959.72
2018-07-22T11:03:41.897Z,95953.97
2018-07-22T11:06:12.367Z,95960.75
2018-07-22T11:08:43.055Z,95958.22
2018-07-22T11:11:13.138Z,95961.52
2018-07-22T11:13:43.626Z,95960.70
2018-07-22T11:16:14.044Z,95958.92
2018-07-22T11:18:44.634Z,95957.75
2018-07-22T11:21:15.287Z,95950.84
2018-07-22T11:23:45.748Z,95954.27
2018-07-22T11:26:16.190Z,95952.23
2018-07-22T11:28:46.674Z,95956.37
2018-07-22T11:31:17.154Z,95952.46
2018-07-22T11:33:47.522Z,95957.17
2018-07-22T11:36:18.324Z,95953.48
2018-07-22T11:38:49.142Z,95948.70
2018-07-22T11:41:20.653Z,95950.18
2018-07-22T11:43:51.216Z,95951.24
2018-07-22T11:46:22.304Z,95947.47
2018-07-22T11:48:53.356Z,95947.73
2018-07-22T11:51:23.837Z,95947.28
2018-07-22T11:53:54.444Z,95947.28
2018-07-22T11:56:24.860Z,95943.41
2018-07-22T11:58:55.546Z,95943.72
2018-07-22T12:01:26.119Z,95951.19
2018-07-22T12:03:56.757Z,95948.83
2018-07-22T12:06:27.217Z,95945.36
2018-07-22T12:08:57.872Z,95939.78
2018-07-22T12:11:28.230Z,95942.38
2018-07-22T12:13:58.616Z,95938.20
2018-07-22T12:16:29.035Z,95941.11
2018-07-22T12:18:59.439Z,95940.11
2018-07-22T12:21:29.813Z,95938.27
2018-07-22T12:24:00.250Z,95935.66
2018-07-22T12:26:30.970Z,95941.75
2018-07-22T12:29:01.358Z,95935.67
2018-07-22T12:31:31.610Z,95934.80
2018-07-22T12:34:02.010Z,95931.58
2018-07-22T12:36:32.400Z,95937.49
2018-07-22T12:39:02.762Z,95929.27
2018-07-22T12:41:33.104Z,95926.09
2018-07-22T12:44:03.446Z,95924.91
2018-07-22T12:46:34.227Z,95925.73
2018-07-22T12:49:04.977Z,95922.64
2018-07-22T12:51:35.412Z,95923.58
2018-07-22T12:54:05.778Z,95925.41
2018-07-22T12:56:36.158Z,95921.67
2018-07-22T12:59:06.620Z,95922.17
2018-07-22T13:01:37.000Z,95922.84
2018-07-22T13:04:07.631Z,95913.23
2018-07-22T13:06:38.029Z,95914.30
2018-07-22T13:09:10.442Z,95915.63
2018-07-22T13:11:40.819Z,95914.14
2018-07-22T13:14:11.211Z,95906.42
2018-07-22T13:16:41.604Z,95912.41
2018-07-22T13:19:12.051Z,95904.02
2018-07-22T13:21:42.777Z,95904.02
2018-07-22T13:24:13.456Z,95909.16
2018-07-22T13:26:43.883Z,95908.00
2018-07-22T13:29:14.172Z,95906.08
2018-07-22T13:31:44.192Z,95900.65
2018-07-22T13:34:14.637Z,95899.08
2018-07-22T13:36:45.013Z,95895.13
2018-07-22T13:39:15.364Z,95900.83
2018-07-22T13:41:45.773Z,95902.08
2018-07-22T13:44:16.155Z,95900.75
2018-07-22T13:46:46.614Z,95908.27
2018-07-22T13:49:17.301Z,95906.13
2018-07-22T13:51:47.743Z,95899.02
2018-07-22T13:54:18.090Z,95902.41
2018-07-22T13:56:48.953Z,95900.31
2018-07-22T13:59:19.334Z,95899.75
2018-07-22T14:01:49.705Z,95902.91
2018-07-22T14:04:20.373Z,95902.70
2018-07-22T14:06:50.775Z,95896.91
2018-07-22T14:09:21.201Z,95896.72
2018-07-22T14:11:51.611Z,95899.87
2018-07-22T14:14:22.555Z,95892.78
2018-07-22T14:16:52.977Z,95888.20
2018-07-22T14:19:23.409Z,95890.63
2018-07-22T14:21:53.768Z,95880.31
2018-07-22T14:24:24.129Z,95882.28
2018-07-22T14:26:54.479Z,95883.48
2018-07-22T14:29:24.848Z,95885.94
2018-07-22T14:31:55.303Z,95881.57
2018-07-22T14:34:25.638Z,95886.38
2018-07-22T14:36:56.580Z,95876.30
2018-07-22T14:39:26.944Z,95872.55
2018-07-22T14:41:57.324Z,95873.64
2018-07-22T14:44:27.652Z,95875.81
2018-07-22T14:46:58.037Z,95878.42
2018-07-22T14:49:28.600Z,95875.78
2018-07-22T14:51:59.007Z,95871.83
2018-07-22T14:54:29.707Z,95869.09
2018-07-22T14:57:00.157Z,95876.28
2018-07-22T14:59:30.502Z,95862.03
2018-07-22T15:02:00.901Z,95872.35
2018-07-22T15:04:31.246Z,95866.84
2018-07-22T15:07:02.386Z,95870.87
2018-07-22T15:09:32.700Z,95869.09
2018-07-22T15:12:03.668Z,95865.27
2018-07-22T15:14:34.061Z,95863.62
2018-07-22T15:17:04.392Z,95869.23
2018-07-22T15:19:35.074Z,95859.52
2018-07-22T15:22:05.685Z,95863.02
2018-07-22T15:24:36.428Z,95861.12
2018-07-22T15:27:07.031Z,95865.01
2018-07-22T15:29:37.793Z,95860.86
2018-07-22T15:32:08.474Z,95860.12
2018-07-22T15:34:39.077Z,95860.52
2018-07-22T15:37:09.436Z,95863.13
2018-07-22T15:39:39.792Z,95864.80
2018-07-22T15:42:10.175Z,95863.26
2018-07-22T15:44:40.587Z,95858.80
2018-07-22T15:47:14.194Z,95860.19
2018-07-22T15:49:44.927Z,95853.10
2018-07-22T15:52:15.267Z,95848.31
2018-07-22T15:54:45.618Z,95856.31
2018-07-22T15:57:15.918Z,95855.93
2018-07-22T15:59:46.491Z,95853.66
2018-07-22T16:02:17.241Z,95856.34
2018-07-22T16:04:48.212Z,95853.53
2018-07-22T16:07:19.231Z,95855.91
2018-07-22T16:09:49.595Z,95855.28
2018-07-22T16:12:19.963Z,95862.53
2018-07-22T16:14:50.423Z,95859.38
2018-07-22T16:17:20.824Z,95866.45
2018-07-22T16:19:51.810Z,95870.02
2018-07-22T16:22:22.220Z,95874.39
2018-07-22T16:24:52.538Z,95870.91
2018-07-22T16:27:22.856Z,95878.00
2018-07-22T16:29:53.481Z,95881.00
2018-07-22T16:32:24.229Z,95889.46
2018-07-22T16:34:54.602Z,95892.69
2018-07-22T16:37:24.980Z,95900.30
2018-07-22T16:39:55.396Z,95905.84
2018-07-22T16:42:25.773Z,95907.55
2018-07-22T16:44:56.091Z,95900.03
2018-07-22T16:47:27.065Z,95909.73
2018-07-22T16:49:57.524Z,95922.18
2018-07-22T16:52:27.950Z,95915.30
2018-07-22T16:54:59.084Z,95918.38
2018-07-22T16:57:29.668Z,95921.21
2018-07-22T17:00:00.106Z,95924.11
2018-07-22T17:02:30.757Z,95921.23
2018-07-22T17:05:01.147Z,95921.57
2018-07-22T17:07:31.828Z,95919.83
2018-07-22T17:10:02.306Z,95921.23
2018-07-22T17:12:32.748Z,95918.14
2018-07-22T17:15:03.234Z,95926.30
2018-07-22T17:17:33.578Z,95931.58
2018-07-22T17:20:04.150Z,95932.04
2018-07-22T17:22:34.520Z,95935.35
2018-07-22T17:25:04.919Z,95935.11
2018-07-22T17:27:34.805Z,95935.09
2018-07-22T17:30:04.931Z,95933.83
2018-07-22T17:32:35.034Z,95944.38
2018-07-22T17:35:05.180Z,95935.83
2018-07-22T17:37:34.968Z,95944.52
2018-07-22T17:40:05.109Z,95941.66
2018-07-22T17:42:35.413Z,95951.74
2018-07-22T17:45:05.357Z,95943.78
2018-07-22T17:47:35.151Z,95943.84
2018-07-22T17:50:05.002Z,95943.69
2018-07-22T17:52:35.442Z,95938.55
2018-07-22T17:55:06.064Z,95939.60
2018-07-22T17:57:36.406Z,95939.60
2018-07-22T18:00:07.149Z,95940.16
2018-07-22T18:02:38.770Z,95937.56
2018-07-22T18:05:09.460Z,95938.99
2018-07-22T18:07:39.885Z,95936.27
2018-07-22T18:10:10.250Z,95933.83
2018-07-22T18:12:40.726Z,95934.02
2018-07-22T18:15:11.440Z,95939.32
2018-07-22T18:17:42.026Z,95942.22
2018-07-22T18:20:12.388Z,95941.30
2018-07-22T18:22:43.082Z,95946.20
2018-07-22T18:25:14.100Z,95956.01
2018-07-22T18:27:44.854Z,95953.86
2018-07-22T18:30:15.189Z,95965.92
2018-07-22T18:32:45.636Z,95968.73
2018-07-22T18:35:16.020Z,95963.39
2018-07-22T18:37:46.528Z,95963.09
2018-07-22T18:40:16.943Z,95976.55
2018-07-22T18:42:47.305Z,95979.98
2018-07-22T18:45:18.397Z,95985.52
2018-07-22T18:47:48.805Z,95992.52
2018-07-22T18:50:19.601Z,95985.17
2018-07-22T18:52:49.995Z,95993.63
2018-07-22T18:55:20.196Z,95995.15
2018-07-22T18:57:50.316Z,95991.02
2018-07-22T19:00:20.422Z,96002.84
2018-07-22T19:02:50.506Z,95998.84
2018-07-22T19:05:20.714Z,95997.08
2018-07-22T19:07:50.864Z,96004.91
2018-07-22T19:10:21.011Z,96011.12
2018-07-22T19:12:51.110Z,96007.33
2018-07-22T19:15:21.258Z,96006.02
2018-07-22T19:17:52.430Z,96005.51
2018-07-22T19:20:22.590Z,96004.64
2018-07-22T19:22:52.738Z,96005.23
2018-07-22T19:25:23.227Z,96009.66
2018-07-22T19:27:53.400Z,96004.16
2018-07-22T19:30:24.018Z,96012.08
2018-07-22T19:32:54.347Z,96012.08
2018-07-22T19:35:24.806Z,96007.55
2018-07-22T19:37:55.037Z,96012.17
2018-07-22T19:40:25.314Z,96021.41
2018-07-22T19:42:55.640Z,96025.75
2018-07-22T19:45:26.800Z,96031.70
2018-07-22T19:47:57.578Z,96028.95
2018-07-22T19:50:28.936Z,96038.49
2018-07-22T19:52:59.637Z,96044.69
2018-07-22T19:55:30.033Z,96043.69
2018-07-22T19:58:00.407Z,96043.81
2018-07-22T20:00:31.147Z,96052.14
2018-07-22T20:03:01.831Z,96050.49
2018-07-22T20:05:32.712Z,96051.31
2018-07-22T20:08:03.507Z,96053.47
2018-07-22T20:10:34.829Z,96050.86
2018-07-22T20:13:06.439Z,96055.23
2018-07-22T20:15:37.792Z,96055.63
2018-07-22T20:18:08.865Z,96065.66
2018-07-22T20:20:40.159Z,96061.91
2018-07-22T20:23:11.239Z,96057.48
2018-07-22T20:25:42.001Z,96060.11
2018-07-22T20:28:12.719Z,96060.95
2018-07-22T20:30:43.161Z,96063.58
2018-07-22T20:33:14.844Z,96060.04
2018-07-22T20:35:45.785Z,96066.50
2018-07-22T20:38:15.557Z,96070.56
2018-07-22T20:40:45.618Z,96059.52
2018-07-22T20:43:15.713Z,96059.64
2018-07-22T20:45:45.862Z,96061.70
2018-07-22T20:48:15.638Z,96063.98
2018-07-22T20:50:45.864Z,96067.64
2018-07-22T20:53:16.276Z,96067.42
2018-07-22T20:55:46.769Z,96065.17
2018-07-22T20:58:17.812Z,96068.58
2018-07-22T21:00:48.072Z,96071.50
2018-07-22T21:03:17.858Z,96066.69
2018-07-22T21:05:48.716Z,96063.09
2018-07-22T21:08:18.861Z,96070.41
2018-07-22T21:10:49.324Z,96073.22
2018-07-22T21:13:21.962Z,96074.60
2018-07-22T21:15:52.948Z,96074.23
2018-07-22T21:18:23.323Z,96071.41
2018-07-22T21:20:53.205Z,96071.42
2018-07-22T21:23:25.841Z,96068.66
2018-07-22T21:25:56.490Z,96062.81
2018-07-22T21:28:26.889Z,96061.42
2018-07-22T21:30:57.333Z,96078.52
2018-07-22T21:33:31.058Z,96065.30
2018-07-22T21:36:00.900Z,96070.83
2018-07-22T21:38:31.702Z,96070.46
2018-07-22T21:41:02.630Z,96064.89
2018-07-22T21:43:32.956Z,96066.27
2018-07-22T21:46:03.470Z,96066.82
2018-07-22T21:48:33.351Z,96065.94
2018-07-22T21:51:03.928Z,96064.02
2018-07-22T21:53:34.344Z,96075.10
2018-07-22T21:56:04.756Z,96065.48
2018-07-22T21:58:34.569Z,96066.33
2018-07-22T22:01:05.442Z,96065.20
2018-07-22T22:03:35.404Z,96062.98
2018-07-22T22:06:05.438Z,96057.22
2018-07-22T22:08:35.564Z,96062.38
2018-07-22T22:11:05.433Z,96059.00
2018-07-22T22:13:35.258Z,96062.02
2018-07-22T22:16:05.216Z,96063.17
2018-07-22T22:18:35.052Z,96061.41
2018-07-22T22:21:04.912Z,96054.78
2018-07-22T22:23:35.280Z,96064.11
2018-07-22T22:26:05.170Z,96057.86
2018-07-22T22:28:35.818Z,96060.80
2018-07-22T22:31:06.293Z,96057.66
2018-07-22T22:33:36.158Z,96056.71
2018-07-22T22:36:06.964Z,96050.89
2018-07-22T22:38:37.593Z,96057.11
2018-07-22T22:44:43.990Z,96052.92
2018-07-22T22:47:13.858Z,96055.73
2018-07-22T22:49:43.639Z,96055.74
2018-07-22T22:52:13.456Z,96051.16
2018-07-22T22:54:43.274Z,96056.07
2018-07-22T22:57:13.834Z,96052.36
2018-07-22T22:59:43.818Z,96049.27
2018-07-22T23:02:13.770Z,96051.38
2018-07-22T23:04:43.612Z,96045.98
2018-07-22T23:07:13.474Z,96041.98
2018-07-22T23:09:43.362Z,96039.27
2018-07-22T23:12:13.154Z,96039.55
2018-07-22T23:14:43.182Z,96037.94
2018-07-22T23:17:13.340Z,96033.52
2018-07-22T23:19:43.814Z,96033.98
2018-07-22T23:22:13.658Z,96034.11
2018-07-22T23:24:44.092Z,96039.95
2018-07-22T23:27:14.447Z,96041.83
2018-07-22T23:29:44.814Z,96046.72
2018-07-22T23:32:15.180Z,96047.33
2018-07-22T23:34:46.578Z,96047.91
2018-07-22T23:37:16.962Z,96052.52
2018-07-22T23:39:47.564Z,96047.84
2018-07-22T23:42:17.400Z,96044.23
2018-07-22T23:44:47.801Z,96043.69
2018-07-22T23:47:18.170Z,96050.86
2018-07-22T23:49:48.085Z,96056.05
2018-07-22T23:52:17.952Z,96058.14
2018-07-22T23:54:48.740Z,96047.61
2018-07-22T23:57:19.440Z,96054.78
2018-07-22T23:59:49.258Z,96047.17
